createdAt,value
2023-04-26T00:01:15.055Z,100.00
2023-04-26T00:03:44.069Z,100.00
2023-04-26T00:06:14.828Z,100.00
2023-04-26T00:08:44.146Z,100.00
2023-04-26T00:11:14.874Z,100.00
2023-04-26T00:13:46.380Z,100.00
2023-04-26T00:16:16.892Z,100.00
2023-04-26T00:18:46.497Z,100.00
2023-04-26T00:21:15.634Z,100.00
2023-04-26T00:23:44.524Z,100.00
2023-04-26T00:26:15.856Z,100.00
2023-04-26T00:28:45.097Z,100.00
2023-04-26T00:31:16.524Z,100.00
2023-04-26T00:33:45.520Z,100.00
2023-04-26T00:36:15.603Z,100.00
2023-04-26T00:38:44.214Z,100.00
2023-04-26T00:41:12.613Z,100.00
2023-04-26T00:43:42.805Z,100.00
2023-04-26T00:46:11.627Z,100.00
2023-04-26T00:48:40.422Z,100.00
2023-04-26T00:51:09.067Z,100.00
2023-04-26T00:53:38.009Z,100.00
2023-04-26T00:56:08.765Z,100.00
2023-04-26T00:58:38.299Z,100.00
2023-04-26T01:01:09.110Z,100.00
2023-04-26T01:03:38.146Z,100.00
2023-04-26T01:06:07.273Z,100.00
2023-04-26T01:08:36.068Z,100.00
2023-04-26T01:11:05.834Z,100.00
2023-04-26T01:13:34.785Z,100.00
2023-04-26T01:16:04.457Z,100.00
2023-04-26T01:18:34.212Z,100.00
2023-04-26T01:21:05.048Z,100.00
2023-04-26T01:23:35.385Z,100.00
2023-04-26T01:26:04.370Z,100.00
2023-04-26T01:28:33.136Z,100.00
2023-04-26T01:31:01.966Z,100.00
2023-04-26T01:33:31.768Z,100.00
2023-04-26T01:36:00.424Z,100.00
2023-04-26T01:38:30.816Z,100.00
2023-04-26T01:41:00.893Z,100.00
2023-04-26T01:43:29.884Z,100.00
2023-04-26T01:45:59.942Z,100.00
2023-04-26T01:48:28.766Z,100.00
2023-04-26T01:51:00.413Z,100.00
2023-04-26T01:53:29.155Z,100.00
2023-04-26T01:55:58.104Z,100.00
2023-04-26T01:58:28.076Z,100.00
2023-04-26T02:00:58.955Z,100.00
2023-04-26T02:03:27.681Z,100.00
2023-04-26T02:05:56.383Z,100.00
2023-04-26T02:08:25.500Z,100.00
2023-04-26T02:10:54.307Z,100.00
2023-04-26T02:13:25.074Z,100.00
2023-04-26T02:15:55.079Z,100.00
2023-04-26T02:18:23.988Z,100.00
2023-04-26T02:20:53.656Z,100.00
2023-04-26T02:23:22.534Z,100.00
2023-04-26T02:25:51.185Z,100.00
2023-04-26T02:28:20.034Z,100.00
2023-04-26T02:30:48.936Z,100.00
2023-04-26T02:33:19.275Z,100.00
2023-04-26T02:35:47.612Z,100.00
2023-04-26T02:38:16.251Z,100.00
2023-04-26T02:40:45.378Z,100.00
2023-04-26T02:43:14.401Z,100.00
2023-04-26T02:45:44.306Z,100.00
2023-04-26T02:48:13.117Z,100.00
2023-04-26T02:50:43.343Z,100.00
2023-04-26T02:53:12.844Z,100.00
2023-04-26T02:55:41.994Z,100.00
2023-04-26T02:58:14.006Z,100.00
2023-04-26T03:00:48.410Z,100.00
2023-04-26T03:03:18.264Z,100.00
2023-04-26T03:05:48.785Z,100.00
2023-04-26T03:08:17.491Z,100.00
2023-04-26T03:10:47.001Z,100.00
2023-04-26T03:13:15.393Z,100.00
2023-04-26T03:15:47.357Z,100.00
2023-04-26T03:18:15.656Z,100.00
2023-04-26T03:20:48.861Z,100.00
2023-04-26T03:23:17.592Z,100.00
2023-04-26T03:25:46.396Z,100.00
2023-04-26T03:28:16.869Z,100.00
2023-04-26T03:30:46.144Z,100.00
2023-04-26T03:33:14.997Z,100.00
2023-04-26T03:35:43.775Z,100.00
2023-04-26T03:38:13.927Z,100.00
2023-04-26T03:40:42.500Z,100.00
2023-04-26T03:43:11.086Z,100.00
2023-04-26T03:45:43.050Z,100.00
2023-04-26T03:48:11.509Z,100.00
2023-04-26T03:50:41.289Z,100.00
2023-04-26T03:53:10.134Z,100.00
2023-04-26T03:55:40.973Z,100.00
2023-04-26T03:58:09.539Z,100.00
2023-04-26T04:00:39.314Z,100.00
2023-04-26T04:03:09.158Z,100.00
2023-04-26T04:05:38.276Z,100.00
2023-04-26T04:08:07.165Z,100.00
2023-04-26T04:10:37.142Z,100.00
2023-04-26T04:13:07.240Z,100.00
2023-04-26T04:15:47.705Z,100.00
2023-04-26T04:18:17.200Z,100.00
2023-04-26T04:20:46.123Z,100.00
2023-04-26T04:23:14.875Z,100.00
2023-04-26T04:25:44.305Z,100.00
2023-04-26T04:28:14.918Z,100.00
2023-04-26T04:30:46.506Z,100.00
2023-04-26T04:33:15.306Z,100.00
2023-04-26T04:35:45.552Z,100.00
2023-04-26T04:38:14.743Z,100.00
2023-04-26T04:40:44.036Z,100.00
2023-04-26T04:43:15.774Z,100.00
2023-04-26T04:45:45.021Z,100.00
2023-04-26T04:48:13.772Z,100.00
2023-04-26T04:50:43.047Z,100.00
2023-04-26T04:53:12.941Z,100.00
2023-04-26T04:55:41.649Z,100.00
2023-04-26T04:58:10.483Z,100.00
2023-04-26T05:00:40.634Z,100.00
2023-04-26T05:03:10.434Z,100.00
2023-04-26T05:05:39.285Z,100.00
2023-04-26T05:08:09.211Z,100.00
2023-04-26T05:10:38.193Z,100.00
2023-04-26T05:13:06.892Z,100.00
2023-04-26T05:15:37.306Z,100.00
2023-04-26T05:18:07.504Z,100.00
2023-04-26T05:20:36.880Z,100.00
2023-04-26T05:23:09.591Z,100.00
2023-04-26T05:25:38.932Z,100.00
2023-04-26T05:28:12.904Z,100.00
2023-04-26T05:30:41.558Z,100.00
2023-04-26T05:33:12.004Z,100.00
2023-04-26T05:35:41.216Z,100.00
2023-04-26T05:38:10.147Z,100.00
2023-04-26T05:40:41.481Z,100.00
2023-04-26T05:43:10.436Z,100.00
2023-04-26T05:45:42.439Z,100.00
2023-04-26T05:48:12.824Z,100.00
2023-04-26T05:50:41.921Z,100.00
2023-04-26T05:53:10.724Z,100.00
2023-04-26T05:55:39.851Z,100.00
2023-04-26T05:58:08.832Z,100.00
2023-04-26T06:00:38.728Z,100.00
2023-04-26T06:03:07.974Z,100.00
2023-04-26T06:05:39.608Z,100.00
2023-04-26T06:08:08.474Z,100.00
2023-04-26T06:10:38.231Z,100.00
2023-04-26T06:13:07.248Z,100.00
2023-04-26T06:15:36.587Z,100.00
2023-04-26T06:18:06.943Z,100.00
2023-04-26T06:20:36.313Z,100.00
2023-04-26T06:23:07.295Z,100.00
2023-04-26T06:25:37.272Z,100.00
2023-04-26T06:28:06.456Z,100.00
2023-04-26T06:30:34.854Z,100.00
2023-04-26T06:33:03.775Z,99.78
2023-04-26T06:35:32.388Z,96.91
2023-04-26T06:38:01.413Z,95.51
2023-04-26T06:40:31.705Z,95.20
2023-04-26T06:43:00.054Z,91.32
2023-04-26T06:45:28.719Z,89.92
2023-04-26T06:47:57.640Z,89.34
2023-04-26T06:50:26.903Z,91.00
2023-04-26T06:52:55.459Z,86.47
2023-04-26T06:55:24.998Z,86.26
2023-04-26T06:57:55.709Z,87.09
2023-04-26T07:00:24.810Z,86.83
2023-04-26T07:02:53.514Z,84.75
2023-04-26T07:05:23.616Z,87.99
2023-04-26T07:07:52.311Z,84.99
2023-04-26T07:10:21.520Z,85.98
2023-04-26T07:12:50.309Z,86.15
2023-04-26T07:15:20.769Z,83.62
2023-04-26T07:17:49.220Z,85.07
2023-04-26T07:20:20.569Z,84.24
2023-04-26T07:22:49.423Z,84.24
2023-04-26T07:25:19.436Z,82.68
2023-04-26T07:27:47.783Z,83.30
2023-04-26T07:30:17.023Z,84.68
2023-04-26T07:32:46.846Z,81.35
2023-04-26T07:35:16.555Z,82.52
2023-04-26T07:37:45.276Z,78.21
2023-04-26T07:40:15.461Z,79.13
2023-04-26T07:42:44.351Z,81.30
2023-04-26T07:45:14.588Z,79.82
2023-04-26T07:47:43.341Z,79.25
2023-04-26T07:50:14.403Z,78.79
2023-04-26T07:52:43.512Z,77.17
2023-04-26T07:55:12.601Z,74.11
2023-04-26T07:57:41.999Z,71.91
2023-04-26T08:00:12.615Z,74.48
2023-04-26T08:02:44.923Z,73.67
2023-04-26T08:05:18.413Z,73.52
2023-04-26T08:07:47.447Z,73.67
2023-04-26T08:10:16.447Z,74.64
2023-04-26T08:12:45.522Z,69.72
2023-04-26T08:15:15.588Z,70.62
2023-04-26T08:17:44.556Z,72.06
2023-04-26T08:20:14.501Z,70.03
2023-04-26T08:22:44.498Z,71.53
2023-04-26T08:25:16.383Z,74.66
2023-04-26T08:27:45.029Z,74.92
2023-04-26T08:30:14.349Z,74.67
2023-04-26T08:32:44.299Z,67.86
2023-04-26T08:35:13.205Z,74.07
2023-04-26T08:37:43.567Z,74.96
2023-04-26T08:40:16.875Z,70.23
2023-04-26T08:42:45.552Z,68.07
2023-04-26T08:45:14.290Z,68.01
2023-04-26T08:47:46.777Z,68.97
2023-04-26T08:50:16.764Z,68.11
2023-04-26T08:52:46.179Z,64.40
2023-04-26T08:55:17.921Z,67.06
2023-04-26T08:57:48.483Z,68.24
2023-04-26T09:00:18.587Z,67.70
2023-04-26T09:02:49.347Z,68.07
2023-04-26T09:05:19.026Z,65.77
2023-04-26T09:07:49.227Z,64.16
2023-04-26T09:10:22.831Z,67.33
2023-04-26T09:12:53.819Z,64.97
2023-04-26T09:15:24.039Z,62.99
2023-04-26T09:17:53.186Z,66.38
2023-04-26T09:20:23.847Z,67.39
2023-04-26T09:22:54.786Z,65.92
2023-04-26T09:25:31.504Z,69.14
2023-04-26T09:28:00.989Z,64.38
2023-04-26T09:30:30.234Z,65.85
2023-04-26T09:33:00.957Z,67.99
2023-04-26T09:35:32.169Z,69.09
2023-04-26T09:38:07.969Z,69.32
2023-04-26T09:40:42.879Z,70.56
2023-04-26T09:43:13.019Z,68.53
2023-04-26T09:45:47.189Z,72.03
2023-04-26T09:48:22.439Z,71.69
2023-04-26T09:50:52.778Z,69.30
2023-04-26T09:53:31.220Z,69.72
2023-04-26T09:56:09.821Z,68.15
2023-04-26T09:58:40.033Z,67.58
2023-04-26T10:01:10.319Z,66.34
2023-04-26T10:03:39.673Z,64.55
2023-04-26T10:06:09.113Z,64.45
2023-04-26T10:08:41.147Z,59.72
2023-04-26T10:11:13.244Z,60.90
2023-04-26T10:13:45.068Z,59.00
2023-04-26T10:16:14.321Z,58.83
2023-04-26T10:18:43.290Z,55.84
2023-04-26T10:21:14.679Z,58.62
2023-04-26T10:23:44.076Z,52.27
2023-04-26T10:26:46.243Z,51.78
2023-04-26T10:29:17.200Z,54.66
2023-04-26T10:32:09.992Z,51.60
2023-04-26T10:34:38.733Z,54.21
2023-04-26T10:37:11.965Z,53.12
2023-04-26T10:39:41.130Z,53.89
2023-04-26T10:42:24.141Z,51.94
2023-04-26T10:44:56.109Z,56.22
2023-04-26T10:47:32.110Z,54.87
2023-04-26T10:50:06.308Z,54.99
2023-04-26T10:52:36.133Z,56.23
2023-04-26T10:55:06.561Z,55.64
2023-04-26T10:57:50.088Z,53.33
2023-04-26T11:00:30.858Z,51.04
2023-04-26T11:03:05.276Z,54.45
2023-04-26T11:05:56.470Z,56.71
2023-04-26T11:08:30.399Z,57.06
2023-04-26T11:11:10.559Z,57.02
2023-04-26T11:13:40.536Z,58.49
2023-04-26T11:16:11.683Z,58.74
2023-04-26T11:18:44.003Z,57.97
2023-04-26T11:21:15.504Z,58.58
2023-04-26T11:23:44.648Z,59.62
2023-04-26T11:26:13.325Z,60.22
2023-04-26T11:28:44.779Z,60.90
2023-04-26T11:31:15.563Z,59.83
2023-04-26T11:33:44.515Z,60.48
2023-04-26T11:36:14.491Z,61.17
2023-04-26T11:38:43.275Z,58.97
2023-04-26T11:41:12.101Z,61.48
2023-04-26T11:43:42.213Z,59.46
2023-04-26T11:46:11.148Z,57.30
2023-04-26T11:48:44.363Z,57.24
2023-04-26T11:51:13.418Z,54.25
2023-04-26T11:53:43.567Z,54.28
2023-04-26T11:56:17.612Z,54.11
2023-04-26T11:58:47.997Z,52.84
2023-04-26T12:01:23.710Z,53.58
2023-04-26T12:03:55.069Z,54.00
2023-04-26T12:06:31.251Z,56.31
2023-04-26T12:09:02.978Z,57.79
2023-04-26T12:11:31.506Z,56.85
2023-04-26T12:14:01.687Z,59.96
2023-04-26T12:16:30.764Z,56.72
2023-04-26T12:19:01.737Z,55.84
2023-04-26T12:21:31.214Z,53.56
2023-04-26T12:24:00.720Z,51.30
2023-04-26T12:26:44.483Z,50.99
2023-04-26T12:29:13.017Z,48.22
2023-04-26T12:31:42.130Z,48.68
2023-04-26T12:34:13.089Z,47.93
2023-04-26T12:36:43.523Z,49.33
2023-04-26T12:39:13.710Z,52.49
2023-04-26T12:41:42.678Z,51.26
2023-04-26T12:44:12.407Z,50.76
2023-04-26T12:46:44.050Z,52.74
2023-04-26T12:49:17.534Z,52.37
2023-04-26T12:51:46.441Z,52.06
2023-04-26T12:54:15.491Z,51.44
2023-04-26T12:56:45.459Z,50.90
2023-04-26T12:59:14.215Z,50.65
2023-04-26T13:01:45.535Z,51.15
2023-04-26T13:04:16.291Z,50.25
2023-04-26T13:06:46.142Z,51.34
2023-04-26T13:09:15.346Z,52.25
2023-04-26T13:11:44.878Z,52.79
2023-04-26T13:14:15.004Z,53.62
2023-04-26T13:16:44.308Z,52.01
2023-04-26T13:19:14.963Z,51.67
2023-04-26T13:21:43.647Z,45.51
2023-04-26T13:24:12.761Z,47.60
2023-04-26T13:26:41.233Z,48.45
2023-04-26T13:29:10.156Z,49.04
2023-04-26T13:31:40.139Z,48.99
2023-04-26T13:34:09.915Z,48.73
2023-04-26T13:36:40.332Z,46.74
2023-04-26T13:39:10.425Z,47.23
2023-04-26T13:41:39.154Z,49.47
2023-04-26T13:44:07.972Z,47.81
2023-04-26T13:46:37.035Z,48.02
2023-04-26T13:49:07.232Z,46.74
2023-04-26T13:51:35.826Z,49.88
2023-04-26T13:54:07.503Z,49.33
2023-04-26T13:56:36.573Z,48.67
2023-04-26T13:59:07.941Z,49.30
2023-04-26T14:01:37.855Z,50.47
2023-04-26T14:04:08.004Z,49.11
2023-04-26T14:06:37.462Z,50.12
2023-04-26T14:09:08.898Z,49.30
2023-04-26T14:11:38.085Z,48.94
2023-04-26T14:14:06.995Z,49.05
2023-04-26T14:16:36.607Z,47.96
2023-04-26T14:19:05.879Z,48.65
2023-04-26T14:21:34.778Z,50.53
2023-04-26T14:24:03.655Z,47.93
2023-04-26T14:26:37.650Z,45.05
2023-04-26T14:29:07.187Z,47.96
2023-04-26T14:31:36.055Z,44.04
2023-04-26T14:34:05.065Z,43.54
2023-04-26T14:36:34.072Z,44.34
2023-04-26T14:39:03.020Z,43.11
2023-04-26T14:41:31.662Z,42.46
2023-04-26T14:44:02.368Z,44.84
2023-04-26T14:46:35.207Z,43.49
2023-04-26T14:49:04.130Z,44.38
2023-04-26T14:51:33.507Z,46.19
2023-04-26T14:54:01.977Z,45.88
2023-04-26T14:56:35.046Z,45.78
2023-04-26T14:59:05.871Z,47.36
2023-04-26T15:01:35.191Z,44.41
2023-04-26T15:04:04.535Z,45.47
2023-04-26T15:06:34.356Z,46.55
2023-04-26T15:09:04.581Z,45.09
2023-04-26T15:11:34.116Z,45.75
2023-04-26T15:14:04.894Z,45.74
2023-04-26T15:16:33.838Z,45.09
2023-04-26T15:19:03.017Z,45.82
2023-04-26T15:21:32.027Z,44.02
2023-04-26T15:24:00.482Z,44.55
2023-04-26T15:26:31.238Z,43.98
2023-04-26T15:28:59.874Z,42.20
2023-04-26T15:31:33.280Z,42.30
2023-04-26T15:34:02.693Z,41.46
2023-04-26T15:36:32.123Z,43.66
2023-04-26T15:39:01.668Z,42.89
2023-04-26T15:41:30.533Z,44.92
2023-04-26T15:44:00.029Z,42.84
2023-04-26T15:46:31.146Z,42.06
2023-04-26T15:49:00.274Z,40.29
2023-04-26T15:51:29.314Z,41.50
2023-04-26T15:53:58.186Z,40.57
2023-04-26T15:56:27.454Z,41.20
2023-04-26T15:58:57.406Z,40.66
2023-04-26T16:01:26.224Z,41.38
2023-04-26T16:03:56.904Z,42.53
2023-04-26T16:06:25.990Z,40.86
2023-04-26T16:08:54.524Z,41.13
2023-04-26T16:11:23.525Z,41.97
2023-04-26T16:13:55.332Z,43.84
2023-04-26T16:16:26.894Z,43.84
2023-04-26T16:18:56.635Z,43.06
2023-04-26T16:21:29.438Z,43.83
2023-04-26T16:23:59.021Z,44.96
2023-04-26T16:26:28.093Z,44.33
2023-04-26T16:28:56.622Z,45.76
2023-04-26T16:31:28.791Z,45.31
2023-04-26T16:33:58.992Z,47.44
2023-04-26T16:36:28.735Z,47.71
2023-04-26T16:38:57.908Z,48.58
2023-04-26T16:41:28.157Z,51.25
2023-04-26T16:43:57.302Z,49.62
2023-04-26T16:46:26.509Z,51.06
2023-04-26T16:48:57.842Z,51.42
2023-04-26T16:51:28.009Z,51.04
2023-04-26T16:53:56.987Z,52.26
2023-04-26T16:56:26.155Z,54.66
2023-04-26T16:58:55.948Z,54.75
2023-04-26T17:01:25.057Z,56.72
2023-04-26T17:03:55.376Z,56.03
2023-04-26T17:06:24.770Z,56.54
2023-04-26T17:08:55.172Z,56.16
2023-04-26T17:11:24.811Z,56.43
2023-04-26T17:13:53.463Z,57.02
2023-04-26T17:16:22.799Z,59.16
2023-04-26T17:18:51.849Z,60.78
2023-04-26T17:21:20.771Z,62.39
2023-04-26T17:23:49.785Z,64.66
2023-04-26T17:26:20.353Z,68.53
2023-04-26T17:28:49.449Z,70.31
2023-04-26T17:31:18.856Z,70.90
2023-04-26T17:33:47.288Z,70.35
2023-04-26T17:36:16.761Z,68.01
2023-04-26T17:38:48.851Z,67.37
2023-04-26T17:41:19.872Z,67.20
2023-04-26T17:43:49.489Z,69.09
2023-04-26T17:46:18.840Z,68.80
2023-04-26T17:48:48.033Z,69.39
2023-04-26T17:51:17.221Z,70.16
2023-04-26T17:53:46.183Z,72.19
2023-04-26T17:56:15.380Z,75.56
2023-04-26T17:58:45.505Z,76.01
2023-04-26T18:01:14.717Z,76.77
2023-04-26T18:03:44.230Z,77.68
2023-04-26T18:06:13.973Z,78.20
2023-04-26T18:08:45.906Z,82.16
2023-04-26T18:11:18.768Z,82.60
2023-04-26T18:13:53.687Z,82.79
2023-04-26T18:16:24.599Z,82.23
2023-04-26T18:18:54.276Z,82.71
2023-04-26T18:21:23.346Z,82.12
2023-04-26T18:23:51.964Z,82.64
2023-04-26T18:26:20.793Z,84.27
2023-04-26T18:28:51.026Z,84.26
2023-04-26T18:31:22.271Z,84.12
2023-04-26T18:33:52.212Z,84.76
2023-04-26T18:36:20.657Z,83.94
2023-04-26T18:38:49.554Z,84.44
2023-04-26T18:41:18.118Z,84.67
2023-04-26T18:43:49.184Z,84.77
2023-04-26T18:46:19.158Z,84.46
2023-04-26T18:48:48.149Z,84.63
2023-04-26T18:51:16.635Z,84.53
2023-04-26T18:53:46.147Z,84.99
2023-04-26T18:56:14.670Z,85.82
2023-04-26T18:58:43.669Z,85.07
2023-04-26T19:01:12.830Z,85.73
2023-04-26T19:03:43.630Z,85.24
2023-04-26T19:06:15.322Z,84.90
2023-04-26T19:08:45.009Z,84.80
2023-04-26T19:11:14.145Z,85.33
2023-04-26T19:13:43.681Z,85.07
2023-04-26T19:16:12.592Z,85.76
2023-04-26T19:18:44.414Z,85.21
2023-04-26T19:21:13.587Z,85.29
2023-04-26T19:23:46.760Z,86.06
2023-04-26T19:26:16.102Z,86.04
2023-04-26T19:28:44.917Z,86.09
2023-04-26T19:31:14.642Z,86.49
2023-04-26T19:33:46.281Z,87.27
2023-04-26T19:36:15.113Z,88.46
2023-04-26T19:38:45.817Z,89.30
2023-04-26T19:41:15.156Z,90.15
2023-04-26T19:43:44.657Z,90.70
2023-04-26T19:46:13.993Z,91.13
2023-04-26T19:48:44.866Z,92.38
2023-04-26T19:51:17.686Z,92.89
2023-04-26T19:53:47.064Z,92.99
2023-04-26T19:56:16.119Z,93.67
2023-04-26T19:58:45.026Z,95.04
2023-04-26T20:01:14.024Z,95.56
2023-04-26T20:03:45.074Z,95.49
2023-04-26T20:06:15.962Z,93.70
2023-04-26T20:08:48.288Z,94.45
2023-04-26T20:11:17.887Z,93.86
2023-04-26T20:13:47.094Z,94.41
2023-04-26T20:16:16.354Z,94.42
2023-04-26T20:18:45.465Z,94.60
2023-04-26T20:21:15.909Z,94.83
2023-04-26T20:23:44.717Z,94.46
2023-04-26T20:26:13.580Z,95.92
2023-04-26T20:28:42.365Z,96.23
2023-04-26T20:31:11.153Z,95.39
2023-04-26T20:33:39.835Z,95.28
2023-04-26T20:36:09.300Z,95.25
2023-04-26T20:38:39.848Z,95.11
2023-04-26T20:41:08.465Z,94.86
2023-04-26T20:43:37.344Z,94.43
2023-04-26T20:46:08.837Z,94.41
2023-04-26T20:48:38.144Z,94.08
2023-04-26T20:51:07.326Z,94.54
2023-04-26T20:53:36.678Z,94.13
2023-04-26T20:56:07.119Z,93.82
2023-04-26T20:58:36.227Z,93.22
2023-04-26T21:01:07.359Z,93.03
2023-04-26T21:03:37.236Z,93.44
2023-04-26T21:06:08.530Z,93.83
2023-04-26T21:08:37.971Z,93.92
2023-04-26T21:11:08.231Z,93.96
2023-04-26T21:13:39.996Z,93.80
2023-04-26T21:16:10.472Z,93.88
2023-04-26T21:18:39.476Z,93.88
2023-04-26T21:21:08.164Z,94.49
2023-04-26T21:23:37.347Z,94.83
2023-04-26T21:26:07.970Z,94.48
2023-04-26T21:28:37.057Z,93.81
2023-04-26T21:31:07.027Z,94.18
2023-04-26T21:33:36.642Z,93.92
2023-04-26T21:36:06.642Z,94.50
2023-04-26T21:38:35.613Z,94.51
2023-04-26T21:41:04.445Z,94.21
2023-04-26T21:43:35.864Z,94.41
2023-04-26T21:46:05.023Z,94.87
2023-04-26T21:48:33.928Z,95.52
2023-04-26T21:51:03.004Z,95.85
2023-04-26T21:53:31.587Z,96.18
2023-04-26T21:56:00.789Z,95.84
2023-04-26T21:58:29.745Z,95.43
2023-04-26T22:01:08.546Z,95.66
2023-04-26T22:03:38.055Z,95.44
2023-04-26T22:06:07.381Z,95.56
2023-04-26T22:08:36.079Z,95.44
2023-04-26T22:11:04.878Z,95.27
2023-04-26T22:13:34.193Z,95.55
2023-04-26T22:16:04.695Z,95.47
2023-04-26T22:18:35.635Z,96.00
2023-04-26T22:21:04.744Z,97.15
2023-04-26T22:23:33.750Z,97.81
2023-04-26T22:26:02.418Z,98.91
2023-04-26T22:28:35.970Z,98.95
2023-04-26T22:31:06.474Z,100.00
2023-04-26T22:33:35.771Z,100.00
2023-04-26T22:36:05.869Z,100.00
2023-04-26T22:38:37.784Z,99.53
2023-04-26T22:41:07.935Z,99.54
2023-04-26T22:43:36.952Z,100.00
2023-04-26T22:46:07.340Z,99.24
2023-04-26T22:48:36.470Z,99.19
2023-04-26T22:51:05.318Z,98.39
2023-04-26T22:53:36.634Z,98.50
2023-04-26T22:56:06.178Z,98.46
2023-04-26T22:58:35.067Z,98.16
2023-04-26T23:01:04.046Z,98.79
2023-04-26T23:03:37.037Z,98.56
2023-04-26T23:06:07.104Z,98.31
2023-04-26T23:08:35.925Z,98.49
2023-04-26T23:11:08.756Z,98.84
2023-04-26T23:13:38.231Z,99.32
2023-04-26T23:16:07.685Z,98.94
2023-04-26T23:18:38.153Z,98.79
2023-04-26T23:21:07.676Z,98.83
2023-04-26T23:23:37.068Z,98.90
2023-04-26T23:26:08.480Z,98.89
2023-04-26T23:28:37.148Z,98.90
2023-04-26T23:31:05.517Z,98.97
2023-04-26T23:33:34.280Z,99.05
2023-04-26T23:36:04.502Z,98.96
2023-04-26T23:38:33.232Z,99.22
2023-04-26T23:41:01.690Z,99.08
2023-04-26T23:43:30.777Z,100.00
2023-04-26T23:45:59.242Z,99.81
2023-04-26T23:48:28.328Z,100.00
2023-04-26T23:50:56.917Z,100.00
2023-04-26T23:53:27.925Z,100.00
2023-04-26T23:55:56.791Z,100.00
2023-04-26T23:58:25.611Z,100.00
